Time;durP1;ratioP1;P1;durP2;ratioP2;P2;SDS_P1;SDS_P2;PMS_P1;PMS_P2;Temp;Humidity;BMP_temperature;BMP_pressure;BME280_temperature;BME280_humidity;BME280_pressure;Samples;Min_cycle;Max_cycle;Signal;HPM_P1;HPM_P2
2021/04/13 04:43:54;;;;;;;5.25;2.80;;;;;;;;;;6260076;22;20030;-79
2021/04/13 04:46:33;;;;;;;6.60;2.95;;;;;;;;;;6283576;22;20016;-81
2021/04/13 04:49:00;;;;;;;4.75;2.78;;;;;;;;;;6252658;22;20057;-80
2021/04/13 04:51:26;;;;;;;5.88;2.90;;;;;;;;;;6279366;22;20000;-80
2021/04/13 04:53:51;;;;;;;7.03;2.90;;;;;;;;;;6250891;22;20037;-80
2021/04/13 04:56:17;;;;;;;6.40;2.78;;;;;;;;;;6306973;22;20026;-80
2021/04/13 04:58:43;;;;;;;7.35;2.70;;;;;;;;;;6283705;22;20042;-79
2021/04/13 05:01:09;;;;;;;9.30;2.75;;;;;;;;;;6284048;22;20011;-80
2021/04/13 05:03:36;;;;;;;6.05;2.60;;;;;;;;;;6311709;22;20003;-79
2021/04/13 05:06:01;;;;;;;6.07;2.20;;;;;;;;;;6288524;22;20014;-77
2021/04/13 05:08:27;;;;;;;4.55;2.63;;;;;;;;;;6283081;22;20000;-79
2021/04/13 05:10:53;;;;;;;5.88;2.75;;;;;;;;;;6283697;22;20003;-79
2021/04/13 05:13:19;;;;;;;5.38;3.10;;;;;;;;;;6282345;22;20216;-78
2021/04/13 05:15:45;;;;;;;4.95;2.50;;;;;;;;;;6283320;22;20342;-79
2021/04/13 05:18:10;;;;;;;6.30;2.97;;;;;;;;;;6283360;22;20067;-79
2021/04/13 05:20:36;;;;;;;6.15;2.55;;;;;;;;;;6283419;22;20430;-79
2021/04/13 05:25:20;;;;;;;5.75;2.63;;;;;;;;;;5115440;27;20401;-78
2021/04/13 05:27:46;;;;;;;5.10;3.03;;;;;;;;;;5108651;28;20028;-79
2021/04/13 05:30:13;;;;;;;5.80;2.75;;;;;;;;;;5109413;28;20049;-79
2021/04/13 05:32:39;;;;;;;6.13;2.92;;;;;;;;;;5104010;28;20032;-79
2021/04/13 05:35:05;;;;;;;7.20;3.95;;;;;;;;;;5111879;28;20117;-78
2021/04/13 05:37:32;;;;;;;6.68;3.20;;;;;;;;;;5107300;28;20165;-78
2021/04/13 05:39:58;;;;;;;5.75;2.78;;;;;;;;;;5120405;28;20038;-79
2021/04/13 05:42:25;;;;;;;7.30;3.03;;;;;;;;;;5112606;28;20028;-79
2021/04/13 05:44:52;;;;;;;5.70;3.17;;;;;;;;;;5106064;28;20430;-79
2021/04/13 05:47:18;;;;;;;5.60;3.05;;;;;;;;;;5105135;28;20035;-78
2021/04/13 05:49:44;;;;;;;6.75;3.55;;;;;;;;;;5111178;28;20024;-78
2021/04/13 05:52:09;;;;;;;6.95;3.63;;;;;;;;;;5109872;28;20446;-78
2021/04/13 05:54:35;;;;;;;6.90;4.15;;;;;;;;;;5109066;28;20032;-79
2021/04/13 05:57:01;;;;;;;5.53;2.95;;;;;;;;;;5107459;28;20103;-79
2021/04/13 05:59:31;;;;;;;9.65;3.95;;;;;;;;;;5103620;28;20028;-79
2021/04/13 06:01:57;;;;;;;7.50;4.10;;;;;;;;;;5108516;28;20026;-80
2021/04/13 06:04:23;;;;;;;6.80;3.88;;;;;;;;;;5102375;28;20232;-79
2021/04/13 06:06:48;;;;;;;8.55;4.00;;;;;;;;;;5108101;28;20021;-78
2021/04/13 06:09:14;;;;;;;6.65;3.97;;;;;;;;;;5103824;28;20096;-79
2021/04/13 06:11:40;;;;;;;7.13;4.10;;;;;;;;;;5104171;28;20024;-79
2021/04/13 06:14:07;;;;;;;8.23;4.25;;;;;;;;;;5104847;28;20027;-79
2021/04/13 06:16:38;;;;;;;8.20;4.22;;;;;;;;;;5104171;28;20023;-78
2021/04/13 06:19:04;;;;;;;10.52;4.00;;;;;;;;;;5102279;28;20015;-78
2021/04/13 06:21:30;;;;;;;8.02;4.53;;;;;;;;;;5105043;28;20025;-79
2021/04/13 06:23:55;;;;;;;8.55;4.90;;;;;;;;;;5106661;28;20022;-80
2021/04/13 06:26:22;;;;;;;6.28;3.97;;;;;;;;;;5105148;28;20028;-77
2021/04/13 06:28:47;;;;;;;8.18;5.18;;;;;;;;;;5108594;28;20024;-79
2021/04/13 06:31:14;;;;;;;11.68;5.57;;;;;;;;;;5100103;28;20036;-79
2021/04/13 06:33:39;;;;;;;7.95;4.82;;;;;;;;;;5101641;28;20073;-79
2021/04/13 06:36:06;;;;;;;8.68;5.20;;;;;;;;;;5092447;28;20028;-79
2021/04/13 06:38:32;;;;;;;9.00;6.03;;;;;;;;;;5090432;28;20384;-79
2021/04/13 06:41:01;;;;;;;10.95;6.22;;;;;;;;;;5096049;28;20080;-79
2021/04/13 06:43:46;;;;;;;11.88;6.55;;;;;;;;;;5086029;28;20077;-77
2021/04/13 06:46:11;;;;;;;11.20;7.25;;;;;;;;;;5091173;28;20028;-78
2021/04/13 06:49:00;;;;;;;9.43;5.45;;;;;;;;;;5091222;28;20549;-78
2021/04/13 06:51:45;;;;;;;7.00;4.93;;;;;;;;;;5080108;28;20028;-79
2021/04/13 06:54:24;;;;;;;9.55;6.38;;;;;;;;;;5088670;28;20033;-78
2021/04/13 06:57:02;;;;;;;11.52;8.25;;;;;;;;;;5091075;28;20020;-78
2021/04/13 06:59:28;;;;;;;17.33;9.63;;;;;;;;;;5091206;28;20207;-79
2021/04/13 07:02:07;;;;;;;16.05;8.60;;;;;;;;;;5090282;28;20035;-78
2021/04/13 07:04:38;;;;;;;12.00;7.47;;;;;;;;;;5086060;28;20024;-80
2021/04/13 07:07:06;;;;;;;17.58;10.80;;;;;;;;;;5090116;28;20031;-79
2021/04/13 07:09:35;;;;;;;17.83;10.20;;;;;;;;;;5091969;28;20024;-79
2021/04/13 07:12:04;;;;;;;20.98;14.45;;;;;;;;;;5090084;28;20030;-79
2021/04/13 07:14:32;;;;;;;27.58;19.65;;;;;;;;;;5086969;28;20050;-78
2021/04/13 07:17:04;;;;;;;32.38;21.85;;;;;;;;;;5089091;28;20388;-78
2021/04/13 07:19:38;;;;;;;19.55;14.43;;;;;;;;;;5088107;28;20024;-80
2021/04/13 07:22:06;;;;;;;20.83;12.13;;;;;;;;;;5096388;28;20036;-80
2021/04/13 07:24:41;;;;;;;17.75;11.25;;;;;;;;;;5086624;28;20024;-79
2021/04/13 07:27:15;;;;;;;21.20;13.25;;;;;;;;;;5100565;28;20024;-80
2021/04/13 07:29:45;;;;;;;23.75;16.00;;;;;;;;;;5100365;28;20035;-78
2021/04/13 07:32:20;;;;;;;28.85;15.57;;;;;;;;;;5092748;28;20571;-78
2021/04/13 07:34:47;;;;;;;19.35;11.38;;;;;;;;;;5085037;28;20031;-79
2021/04/13 07:37:17;;;;;;;22.58;15.45;;;;;;;;;;5091250;28;20028;-78
2021/04/13 07:39:45;;;;;;;20.80;13.90;;;;;;;;;;5105932;28;20043;-81
2021/04/13 07:42:14;;;;;;;24.35;17.63;;;;;;;;;;5093728;28;20115;-79
2021/04/13 07:44:58;;;;;;;16.73;11.23;;;;;;;;;;5094952;28;20071;-81
2021/04/13 07:47:31;;;;;;;14.57;10.20;;;;;;;;;;5079493;28;20033;-80
2021/04/13 07:49:58;;;;;;;15.95;9.02;;;;;;;;;;5083650;28;20047;-79
2021/04/13 07:52:36;;;;;;;21.38;9.18;;;;;;;;;;5084223;28;20059;-80
2021/04/13 07:55:05;;;;;;;17.65;10.10;;;;;;;;;;5089088;28;20034;-80
2021/04/13 07:57:48;;;;;;;13.35;8.88;;;;;;;;;;5087159;28;20028;-81
2021/04/13 08:00:19;;;;;;;14.43;8.60;;;;;;;;;;5089737;28;20032;-81
2021/04/13 08:02:47;;;;;;;13.52;8.55;;;;;;;;;;5089028;28;20025;-81
2021/04/13 08:05:13;;;;;;;13.93;8.68;;;;;;;;;;5086794;28;20016;-79
2021/04/13 08:07:41;;;;;;;15.60;8.43;;;;;;;;;;5092683;28;20020;-82
2021/04/13 08:10:31;;;;;;;13.20;8.25;;;;;;;;;;5097711;28;20098;-81
2021/04/13 08:13:01;;;;;;;13.35;9.05;;;;;;;;;;5105220;28;20024;-82
2021/04/13 08:15:53;;;;;;;16.77;8.73;;;;;;;;;;5097222;28;20024;-81
2021/04/13 08:18:27;;;;;;;12.00;8.05;;;;;;;;;;5099058;27;20040;-80
2021/04/13 08:20:54;;;;;;;13.23;7.90;;;;;;;;;;5102882;28;20088;-78
2021/04/13 08:23:23;;;;;;;13.30;7.93;;;;;;;;;;5096998;28;20044;-78
2021/04/13 08:25:50;;;;;;;14.52;9.77;;;;;;;;;;5104447;28;20052;-78
2021/04/13 08:28:20;;;;;;;11.30;7.70;;;;;;;;;;5105787;28;20035;-80
2021/04/13 08:34:00;;;;;;;13.23;7.70;;;;;;;;;;5100338;28;20039;-79
2021/04/13 08:36:35;;;;;;;11.20;7.43;;;;;;;;;;5089206;28;20028;-79
2021/04/13 08:39:23;;;;;;;12.38;7.93;;;;;;;;;;5098129;28;20395;-78
2021/04/13 08:42:04;;;;;;;14.10;7.78;;;;;;;;;;5086908;28;20024;-79
2021/04/13 08:44:47;;;;;;;12.67;7.53;;;;;;;;;;5100860;28;20012;-79
2021/04/13 08:47:15;;;;;;;12.73;7.43;;;;;;;;;;5107500;28;20094;-78
2021/04/13 08:49:43;;;;;;;12.10;7.22;;;;;;;;;;5100054;28;20044;-78
2021/04/13 08:52:27;;;;;;;9.18;6.95;;;;;;;;;;5104154;28;20023;-77
2021/04/13 08:55:01;;;;;;;9.07;6.32;;;;;;;;;;5089994;28;20053;-79
2021/04/13 08:57:32;;;;;;;10.52;6.75;;;;;;;;;;5088770;28;20374;-79
2021/04/13 08:59:58;;;;;;;9.37;6.93;;;;;;;;;;5091709;28;20024;-79
2021/04/13 09:02:35;;;;;;;12.15;7.10;;;;;;;;;;5086361;28;20617;-79
2021/04/13 09:05:04;;;;;;;9.43;6.45;;;;;;;;;;5085182;28;20024;-79
2021/04/13 09:07:36;;;;;;;8.95;6.20;;;;;;;;;;5085896;28;20472;-79
2021/04/13 09:10:01;;;;;;;;;;;;;;;;;;5090405;28;20028;-79
2021/04/13 09:12:29;;;;;;;10.20;6.65;;;;;;;;;;5086359;28;19912;-79
2021/04/13 09:15:04;;;;;;;9.38;6.00;;;;;;;;;;5087094;28;20034;-79
2021/04/13 09:17:36;;;;;;;8.95;5.82;;;;;;;;;;5091370;28;20192;-79
2021/04/13 09:20:08;;;;;;;8.02;5.95;;;;;;;;;;5085445;28;20040;-80
2021/04/13 09:22:36;;;;;;;8.02;6.00;;;;;;;;;;5087891;28;20440;-81
2021/04/13 09:25:18;;;;;;;9.50;5.22;;;;;;;;;;5085853;28;20028;-79
2021/04/13 09:27:51;;;;;;;8.98;6.30;;;;;;;;;;5089982;28;20032;-79
2021/04/13 09:30:20;;;;;;;10.10;6.60;;;;;;;;;;5094785;28;20472;-79
2021/04/13 09:32:47;;;;;;;10.15;6.20;;;;;;;;;;5092523;28;20034;-80
2021/04/13 09:35:25;;;;;;;10.93;6.60;;;;;;;;;;5094705;28;20538;-79
2021/04/13 09:38:00;;;;;;;7.88;5.63;;;;;;;;;;5090661;28;20032;-80
2021/04/13 09:40:26;;;;;;;10.88;5.72;;;;;;;;;;5081640;28;20028;-80
2021/04/13 09:43:10;;;;;;;8.30;5.32;;;;;;;;;;5092086;28;20054;-80
2021/04/13 09:45:48;;;;;;;6.65;4.88;;;;;;;;;;5087754;28;20016;-79
2021/04/13 09:48:40;;;;;;;9.27;5.15;;;;;;;;;;5086969;28;20120;-79
2021/04/13 09:51:06;;;;;;;10.68;5.55;;;;;;;;;;5085781;28;20022;-80
2021/04/13 09:53:31;;;;;;;7.60;4.55;;;;;;;;;;5087925;28;20025;-80
2021/04/13 09:56:16;;;;;;;8.80;4.57;;;;;;;;;;5088928;28;20032;-78
2021/04/13 09:59:05;;;;;;;6.30;4.13;;;;;;;;;;5086483;28;20012;-80
2021/04/13 10:04:09;;;;;;;6.55;4.68;;;;;;;;;;5101194;27;20373;-79
2021/04/13 10:06:36;;;;;;;7.25;4.85;;;;;;;;;;5099282;28;20024;-79
2021/04/13 10:09:04;;;;;;;10.13;4.90;;;;;;;;;;5105132;28;20023;-80
2021/04/13 10:11:59;;;;;;;8.13;5.03;;;;;;;;;;5098220;28;20016;-78
2021/04/13 10:14:25;;;;;;;6.63;4.35;;;;;;;;;;5093056;28;20039;-80
2021/04/13 10:17:10;;;;;;;6.05;3.70;;;;;;;;;;5100709;28;20013;-80
2021/04/13 10:19:54;;;;;;;6.13;4.13;;;;;;;;;;5090488;28;20012;-81
2021/04/13 10:22:43;;;;;;;5.88;4.10;;;;;;;;;;5102234;28;20023;-79
2021/04/13 10:25:23;;;;;;;8.23;4.00;;;;;;;;;;5095421;28;20019;-79
2021/04/13 10:28:08;;;;;;;6.75;4.15;;;;;;;;;;5101894;28;20433;-80
2021/04/13 10:30:42;;;;;;;7.38;3.97;;;;;;;;;;5113379;28;20103;-80
2021/04/13 10:33:14;;;;;;;5.65;3.38;;;;;;;;;;5092735;28;20024;-79
2021/04/13 10:35:49;;;;;;;5.40;3.92;;;;;;;;;;5097558;28;20044;-78
2021/04/13 10:38:14;;;;;;;6.60;4.05;;;;;;;;;;5103667;28;20019;-79
2021/04/13 10:40:53;;;;;;;9.05;4.10;;;;;;;;;;5106054;28;20066;-78
2021/04/13 10:43:37;;;;;;;7.35;4.38;;;;;;;;;;5096389;28;20012;-79
2021/04/13 10:46:08;;;;;;;8.15;4.10;;;;;;;;;;5089891;28;20062;-80
2021/04/13 10:48:55;;;;;;;6.32;3.83;;;;;;;;;;5091447;28;20039;-82
2021/04/13 10:51:30;;;;;;;9.38;3.78;;;;;;;;;;5103962;28;20020;-81
2021/04/13 10:54:15;;;;;;;7.13;3.55;;;;;;;;;;5097614;28;20120;-81
2021/04/13 10:56:56;;;;;;;5.53;3.40;;;;;;;;;;5100095;28;20035;-81
2021/04/13 10:59:58;;;;;;;;;;;;;;;;;;;;;
2021/04/13 11:02:27;;;;;;;7.25;3.90;;;;;;;;;;5102138;28;20024;-79
2021/04/13 11:04:55;;;;;;;5.53;2.90;;;;;;;;;;5100425;28;20060;-81
2021/04/13 11:09:42;;;;;;;5.75;3.30;;;;;;;;;;5111889;27;20364;-81
2021/04/13 11:12:26;;;;;;;7.85;2.90;;;;;;;;;;5106545;28;20112;-82
2021/04/13 11:15:04;;;;;;;5.03;2.83;;;;;;;;;;5111959;28;20019;-80
2021/04/13 11:17:39;;;;;;;5.00;3.10;;;;;;;;;;5098371;28;20075;-81
2021/04/13 11:20:08;;;;;;;4.00;2.60;;;;;;;;;;5106592;28;20027;-81
2021/04/13 11:22:38;;;;;;;5.32;3.05;;;;;;;;;;5096878;28;20017;-79
2021/04/13 11:25:07;;;;;;;4.38;2.97;;;;;;;;;;5095984;28;20047;-81
2021/04/13 11:27:36;;;;;;;5.10;3.58;;;;;;;;;;5095911;28;20031;-78
2021/04/13 11:30:20;;;;;;;5.38;3.30;;;;;;;;;;5095665;28;20034;-81
2021/04/13 11:33:04;;;;;;;7.97;3.90;;;;;;;;;;5096540;28;20012;-81
2021/04/13 11:35:43;;;;;;;5.63;3.55;;;;;;;;;;5098627;28;20028;-82
2021/04/13 11:38:11;;;;;;;7.75;3.33;;;;;;;;;;5098572;28;20032;-79
2021/04/13 11:40:40;;;;;;;6.70;3.10;;;;;;;;;;5094930;28;20106;-78
2021/04/13 11:43:09;;;;;;;5.22;3.15;;;;;;;;;;5096758;28;20020;-81
2021/04/13 11:45:43;;;;;;;5.40;3.00;;;;;;;;;;5092313;28;20028;-81
2021/04/13 11:48:14;;;;;;;4.95;3.00;;;;;;;;;;5093156;28;20082;-79
2021/04/13 11:50:45;;;;;;;5.95;3.92;;;;;;;;;;5092649;28;20089;-81
2021/04/13 11:53:13;;;;;;;7.68;4.07;;;;;;;;;;5095653;28;20020;-79
2021/04/13 11:55:40;;;;;;;5.78;3.70;;;;;;;;;;5096626;28;20027;-82
2021/04/13 11:58:10;;;;;;;9.27;4.03;;;;;;;;;;5095291;28;20028;-82
2021/04/13 12:00:36;;;;;;;5.55;3.53;;;;;;;;;;5100350;28;20028;-82
2021/04/13 12:03:08;;;;;;;6.70;3.92;;;;;;;;;;5098856;28;20441;-82
2021/04/13 12:05:34;;;;;;;6.57;3.72;;;;;;;;;;5090004;28;20586;-78
2021/04/13 12:08:03;;;;;;;7.25;3.53;;;;;;;;;;5093531;28;20056;-80
2021/04/13 12:10:32;;;;;;;5.53;3.20;;;;;;;;;;5090019;28;20062;-81
2021/04/13 12:12:59;;;;;;;6.47;2.88;;;;;;;;;;5095591;28;20077;-80
2021/04/13 12:15:25;;;;;;;7.20;3.20;;;;;;;;;;5092437;28;20359;-82
2021/04/13 12:17:54;;;;;;;5.95;3.13;;;;;;;;;;5094756;28;20497;-82
2021/04/13 12:20:27;;;;;;;5.80;3.10;;;;;;;;;;5087228;28;20050;-81
2021/04/13 12:22:58;;;;;;;5.18;3.00;;;;;;;;;;5079704;28;20060;-83
2021/04/13 12:25:36;;;;;;;5.10;3.30;;;;;;;;;;5085089;28;20056;-80
2021/04/13 12:28:04;;;;;;;4.97;2.60;;;;;;;;;;5073642;28;20016;-79
2021/04/13 12:30:32;;;;;;;5.38;3.25;;;;;;;;;;5080905;28;20024;-83
2021/04/13 12:32:58;;;;;;;6.20;3.15;;;;;;;;;;5080126;28;20032;-80
2021/04/13 12:35:43;;;;;;;5.78;2.92;;;;;;;;;;5079771;28;20036;-81
2021/04/13 12:38:27;;;;;;;4.38;2.40;;;;;;;;;;5079391;28;20086;-81
2021/04/13 12:41:12;;;;;;;6.03;2.97;;;;;;;;;;5078657;28;20063;-80
2021/04/13 12:43:51;;;;;;;5.28;3.13;;;;;;;;;;5075783;28;20020;-81
2021/04/13 12:46:23;;;;;;;5.07;2.83;;;;;;;;;;5076489;28;20542;-78
2021/04/13 12:48:48;;;;;;;;;;;;;;;;;;5084361;28;20024;-82
2021/04/13 12:51:16;;;;;;;5.65;2.90;;;;;;;;;;5079980;28;19916;-82
2021/04/13 12:53:42;;;;;;;4.35;2.55;;;;;;;;;;5091297;28;20024;-81
2021/04/13 12:56:10;;;;;;;4.28;2.40;;;;;;;;;;5088120;28;20119;-80
2021/04/13 12:58:37;;;;;;;5.15;2.55;;;;;;;;;;5094135;28;20024;-82
2021/04/13 13:01:03;;;;;;;6.57;3.00;;;;;;;;;;5086766;28;20021;-81
2021/04/13 13:03:37;;;;;;;3.63;2.15;;;;;;;;;;5085135;28;20107;-82
2021/04/13 13:06:14;;;;;;;4.93;2.50;;;;;;;;;;5081083;28;20107;-81
2021/04/13 13:08:39;;;;;;;4.97;2.45;;;;;;;;;;5083067;28;20412;-79
2021/04/13 13:11:11;;;;;;;3.85;2.42;;;;;;;;;;5093517;28;20103;-81
2021/04/13 13:13:38;;;;;;;5.72;2.40;;;;;;;;;;5083966;28;20021;-81
2021/04/13 13:16:14;;;;;;;5.45;2.70;;;;;;;;;;5093135;28;20066;-81
2021/04/13 13:18:46;;;;;;;4.72;2.33;;;;;;;;;;5085796;28;20024;-78
2021/04/13 13:21:14;;;;;;;6.22;2.38;;;;;;;;;;5088410;28;20026;-80
2021/04/13 13:23:41;;;;;;;6.60;2.80;;;;;;;;;;5086227;28;20469;-80
2021/04/13 13:26:30;;;;;;;4.63;2.40;;;;;;;;;;5088707;28;20409;-81
2021/04/13 13:28:56;;;;;;;3.42;1.73;;;;;;;;;;5087713;28;20408;-78
2021/04/13 13:31:34;;;;;;;3.63;2.03;;;;;;;;;;5089311;28;20013;-81
2021/04/13 13:34:00;;;;;;;3.63;2.00;;;;;;;;;;5079486;28;20012;-79
2021/04/13 13:36:28;;;;;;;5.93;2.15;;;;;;;;;;5074653;28;19931;-85
2021/04/13 13:38:54;;;;;;;4.35;1.92;;;;;;;;;;5074147;28;20431;-81
2021/04/13 13:41:21;;;;;;;5.40;1.60;;;;;;;;;;5076671;28;20032;-80
2021/04/13 13:43:50;;;;;;;4.68;1.90;;;;;;;;;;5072817;28;20016;-80
2021/04/13 13:46:19;;;;;;;5.18;1.95;;;;;;;;;;5075562;28;20024;-78
2021/04/13 13:48:46;;;;;;;4.40;1.95;;;;;;;;;;5081277;28;20059;-81
2021/04/13 13:51:33;;;;;;;4.13;1.58;;;;;;;;;;5087412;28;20040;-81
2021/04/13 13:54:11;;;;;;;4.30;1.90;;;;;;;;;;5078748;28;20031;-79
2021/04/13 13:56:37;;;;;;;3.50;1.58;;;;;;;;;;5078919;28;20080;-80
2021/04/13 13:59:24;;;;;;;6.05;1.90;;;;;;;;;;5082403;28;20054;-81
2021/04/13 14:01:54;;;;;;;3.88;1.38;;;;;;;;;;5078148;28;20024;-82
2021/04/13 14:04:31;;;;;;;2.90;1.60;;;;;;;;;;5073642;28;20055;-81
2021/04/13 14:06:57;;;;;;;3.85;1.70;;;;;;;;;;5072441;28;20038;-81
2021/04/13 14:09:23;;;;;;;3.70;1.55;;;;;;;;;;5079841;28;20020;-80
2021/04/13 14:11:48;;;;;;;3.70;1.85;;;;;;;;;;5078319;28;20048;-80
2021/04/13 14:14:23;;;;;;;3.58;1.50;;;;;;;;;;5072214;28;20016;-79
2021/04/13 14:16:52;;;;;;;2.50;1.48;;;;;;;;;;5082010;28;20042;-82
2021/04/13 14:19:21;;;;;;;4.85;1.33;;;;;;;;;;5089854;28;20020;-81
2021/04/13 14:21:47;;;;;;;3.20;1.33;;;;;;;;;;5085953;28;20063;-81
2021/04/13 14:24:33;;;;;;;6.57;1.73;;;;;;;;;;5085708;28;20047;-82
2021/04/13 14:27:05;;;;;;;2.83;1.10;;;;;;;;;;5087761;28;20051;-81
2021/04/13 14:29:31;;;;;;;5.10;1.50;;;;;;;;;;5074173;28;20068;-82
2021/04/13 14:31:57;;;;;;;5.47;1.98;;;;;;;;;;5074957;28;20036;-81
2021/04/13 14:34:24;;;;;;;4.13;2.00;;;;;;;;;;5075961;28;20024;-83
2021/04/13 14:37:05;;;;;;;3.40;1.75;;;;;;;;;;5078457;28;20028;-82
2021/04/13 14:39:38;;;;;;;4.03;1.95;;;;;;;;;;5081597;28;20067;-80
2021/04/13 14:44:22;;;;;;;3.20;1.35;;;;;;;;;;5104835;27;20434;-79
2021/04/13 14:46:48;;;;;;;3.22;1.38;;;;;;;;;;5082457;28;20032;-82
2021/04/13 14:49:13;;;;;;;3.38;1.48;;;;;;;;;;5081656;28;20031;-82
2021/04/13 14:51:39;;;;;;;2.60;1.30;;;;;;;;;;5082402;28;20096;-81
2021/04/13 14:54:06;;;;;;;5.53;1.60;;;;;;;;;;5081911;28;20029;-81
2021/04/13 14:56:32;;;;;;;3.17;1.30;;;;;;;;;;5077418;28;20067;-80
2021/04/13 14:58:58;;;;;;;4.35;1.50;;;;;;;;;;5078716;28;20024;-79
2021/04/13 15:01:24;;;;;;;3.45;1.20;;;;;;;;;;5081397;28;20027;-80
2021/04/13 15:03:49;;;;;;;8.20;1.25;;;;;;;;;;5083725;28;20111;-79
2021/04/13 15:06:15;;;;;;;4.50;2.22;;;;;;;;;;5084707;28;20107;-79
2021/04/13 15:08:41;;;;;;;3.10;1.17;;;;;;;;;;5080121;28;20024;-79
2021/04/13 15:11:07;;;;;;;3.63;1.35;;;;;;;;;;5086420;28;20391;-80
2021/04/13 15:13:34;;;;;;;4.15;1.77;;;;;;;;;;5085268;28;20012;-80
2021/04/13 15:16:00;;;;;;;3.20;1.10;;;;;;;;;;5088420;28;20069;-79
2021/04/13 15:18:26;;;;;;;2.85;1.23;;;;;;;;;;5082559;28;20399;-79
2021/04/13 15:20:55;;;;;;;4.88;1.00;;;;;;;;;;5078346;28;20473;-78
2021/04/13 15:23:24;;;;;;;3.72;1.20;;;;;;;;;;5081049;28;20767;-79
2021/04/13 15:25:53;;;;;;;2.88;1.00;;;;;;;;;;5083546;28;20043;-81
2021/04/13 15:28:18;;;;;;;5.13;1.23;;;;;;;;;;5088329;28;20085;-80
2021/04/13 15:30:45;;;;;;;3.05;1.58;;;;;;;;;;5086430;28;20044;-80
2021/04/13 15:33:16;;;;;;;2.63;1.30;;;;;;;;;;5078856;28;20135;-79
2021/04/13 15:36:08;;;;;;;3.22;1.50;;;;;;;;;;5077763;28;20028;-77
2021/04/13 15:38:34;;;;;;;4.03;1.83;;;;;;;;;;5078174;28;20169;-76
2021/04/13 15:41:05;;;;;;;2.70;1.13;;;;;;;;;;5088773;28;20024;-80
2021/04/13 15:43:39;;;;;;;2.95;1.30;;;;;;;;;;5079895;28;20434;-80
2021/04/13 15:46:11;;;;;;;3.17;1.23;;;;;;;;;;5066739;28;20066;-79
2021/04/13 15:48:39;;;;;;;3.80;1.65;;;;;;;;;;5094792;28;20024;-80
2021/04/13 15:51:05;;;;;;;3.90;1.20;;;;;;;;;;5077802;28;20064;-78
2021/04/13 15:53:31;;;;;;;4.78;1.33;;;;;;;;;;5083738;28;20101;-79
2021/04/13 15:55:58;;;;;;;3.60;1.05;;;;;;;;;;5069650;28;20028;-77
2021/04/13 15:58:28;;;;;;;3.10;1.23;;;;;;;;;;5063497;28;20039;-81
2021/04/13 16:00:53;;;;;;;2.55;1.10;;;;;;;;;;5055756;28;20025;-80
2021/04/13 16:03:19;;;;;;;2.53;1.02;;;;;;;;;;5073485;28;20078;-80
2021/04/13 16:05:45;;;;;;;3.30;0.82;;;;;;;;;;5075959;28;20027;-80
2021/04/13 16:08:11;;;;;;;5.93;1.90;;;;;;;;;;5059069;28;20025;-79
2021/04/13 16:10:37;;;;;;;4.68;1.25;;;;;;;;;;5058262;28;20032;-78
2021/04/13 16:13:02;;;;;;;3.50;1.20;;;;;;;;;;5068154;28;20032;-80
2021/04/13 16:15:28;;;;;;;4.45;1.42;;;;;;;;;;5052922;28;20029;-78
2021/04/13 16:17:54;;;;;;;6.32;2.60;;;;;;;;;;5063221;28;20033;-79
2021/04/13 16:20:21;;;;;;;6.30;2.90;;;;;;;;;;5065935;28;20059;-79
2021/04/13 16:22:47;;;;;;;6.65;2.13;;;;;;;;;;5059163;28;20035;-79
2021/04/13 16:25:14;;;;;;;7.40;3.63;;;;;;;;;;5066349;28;20017;-77
2021/04/13 16:27:40;;;;;;;6.43;2.70;;;;;;;;;;5070405;28;20021;-78
2021/04/13 16:30:06;;;;;;;10.60;4.38;;;;;;;;;;5060564;28;20021;-78
2021/04/13 16:32:33;;;;;;;10.02;3.55;;;;;;;;;;5069780;28;20062;-80
2021/04/13 16:35:00;;;;;;;8.02;3.58;;;;;;;;;;5060116;28;20075;-79
2021/04/13 16:37:29;;;;;;;5.03;2.13;;;;;;;;;;5066219;28;20032;-76
2021/04/13 16:40:00;;;;;;;3.35;1.50;;;;;;;;;;5067307;28;20021;-78
2021/04/13 16:42:31;;;;;;;4.80;1.60;;;;;;;;;;5066773;28;20119;-77
2021/04/13 16:44:59;;;;;;;3.97;2.83;;;;;;;;;;5067698;28;20024;-78
2021/04/13 16:47:26;;;;;;;8.20;5.57;;;;;;;;;;5064257;28;20029;-78
2021/04/13 16:49:55;;;;;;;5.25;4.75;;;;;;;;;;5056293;28;20047;-76
2021/04/13 16:52:23;;;;;;;3.30;2.00;;;;;;;;;;5057559;28;20021;-78
2021/04/13 16:54:49;;;;;;;2.80;1.30;;;;;;;;;;5057766;28;20414;-78
2021/04/13 16:57:15;;;;;;;3.38;1.40;;;;;;;;;;5057083;28;20040;-79
2021/04/13 16:59:41;;;;;;;4.63;1.25;;;;;;;;;;5064434;28;20025;-78
2021/04/13 17:02:24;;;;;;;2.90;1.15;;;;;;;;;;5068355;28;20035;-79
2021/04/13 17:04:59;;;;;;;2.83;1.05;;;;;;;;;;5056012;28;20031;-78
2021/04/13 17:07:27;;;;;;;2.75;1.42;;;;;;;;;;5063149;28;20469;-77
2021/04/13 17:09:58;;;;;;;5.43;3.55;;;;;;;;;;5068742;28;20029;-78
2021/04/13 17:12:30;;;;;;;7.20;3.92;;;;;;;;;;5060289;28;20488;-78
2021/04/13 17:15:07;;;;;;;6.38;2.80;;;;;;;;;;5057860;28;20034;-79
2021/04/13 17:17:41;;;;;;;5.45;2.00;;;;;;;;;;5060283;28;20082;-78
2021/04/13 17:20:10;;;;;;;6.57;4.45;;;;;;;;;;5055327;28;20085;-77
2021/04/13 17:22:36;;;;;;;6.50;2.60;;;;;;;;;;5052326;28;20028;-79
2021/04/13 17:25:07;;;;;;;5.10;1.67;;;;;;;;;;5055488;28;20039;-78
2021/04/13 17:27:34;;;;;;;2.92;1.48;;;;;;;;;;5062323;28;20024;-78
2021/04/13 17:32:19;;;;;;;11.75;7.22;;;;;;;;;;5084205;27;20760;-78
2021/04/13 17:34:44;;;;;;;6.63;4.15;;;;;;;;;;5066930;28;20420;-78
2021/04/13 17:37:13;;;;;;;2.90;1.48;;;;;;;;;;5059639;28;20021;-77
2021/04/13 17:39:43;;;;;;;2.72;1.65;;;;;;;;;;5059285;28;20108;-78
2021/04/13 17:42:18;;;;;;;6.43;2.58;;;;;;;;;;5055067;28;20032;-78
2021/04/13 17:44:46;;;;;;;4.68;1.42;;;;;;;;;;5064826;28;20025;-78
2021/04/13 17:47:27;;;;;;;3.63;1.60;;;;;;;;;;5060771;28;20029;-76
2021/04/13 17:49:57;;;;;;;5.28;1.48;;;;;;;;;;5057624;28;20020;-78
2021/04/13 17:52:24;;;;;;;5.35;1.40;;;;;;;;;;5059987;28;20056;-78
2021/04/13 17:54:50;;;;;;;4.35;1.42;;;;;;;;;;5054960;28;20024;-78
2021/04/13 17:57:17;;;;;;;4.40;1.77;;;;;;;;;;5051901;28;20025;-78
2021/04/13 17:59:43;;;;;;;4.15;1.30;;;;;;;;;;5057434;28;20025;-77
2021/04/13 18:02:24;;;;;;;9.13;3.85;;;;;;;;;;5058869;28;20025;-79
2021/04/13 18:04:50;;;;;;;8.65;3.10;;;;;;;;;;5054250;28;20025;-78
2021/04/13 18:07:17;;;;;;;12.73;4.35;;;;;;;;;;5059151;28;20078;-77
2021/04/13 18:09:47;;;;;;;93.57;31.08;;;;;;;;;;5048653;28;20020;-78
2021/04/13 18:12:18;;;;;;;31.40;11.30;;;;;;;;;;5054229;28;20068;-78
2021/04/13 18:14:46;;;;;;;14.07;5.57;;;;;;;;;;5057421;28;20021;-77
2021/04/13 18:17:21;;;;;;;17.77;6.60;;;;;;;;;;5065049;28;20023;-77
2021/04/13 18:19:50;;;;;;;16.02;6.85;;;;;;;;;;5061760;28;20032;-78
2021/04/13 18:22:16;;;;;;;10.25;3.55;;;;;;;;;;5055067;28;20025;-78
2021/04/13 18:24:42;;;;;;;4.65;1.73;;;;;;;;;;5054778;28;20043;-78
2021/04/13 18:27:22;;;;;;;4.50;1.45;;;;;;;;;;5061352;28;20041;-78
2021/04/13 18:29:47;;;;;;;4.00;1.60;;;;;;;;;;5056633;28;20476;-78
2021/04/13 18:32:17;;;;;;;3.65;1.15;;;;;;;;;;5048838;28;20105;-78
2021/04/13 18:35:02;;;;;;;2.55;0.90;;;;;;;;;;5055649;28;20054;-78
2021/04/13 18:37:31;;;;;;;2.00;0.95;;;;;;;;;;5040479;28;20032;-77
2021/04/13 18:39:57;;;;;;;4.90;1.00;;;;;;;;;;5062366;28;20425;-77
2021/04/13 18:42:24;;;;;;;2.35;0.90;;;;;;;;;;5058571;28;20088;-77
2021/04/13 18:44:54;;;;;;;5.03;1.30;;;;;;;;;;5045476;28;20035;-79
2021/04/13 18:47:22;;;;;;;4.82;1.00;;;;;;;;;;5040682;28;20029;-77
2021/04/13 18:49:52;;;;;;;4.72;1.10;;;;;;;;;;5042945;28;20022;-79
2021/04/13 18:52:32;;;;;;;4.27;1.60;;;;;;;;;;5047367;28;20025;-78
2021/04/13 18:55:29;;;;;;;3.92;1.17;;;;;;;;;;5048151;28;20036;-79
2021/04/13 18:57:58;;;;;;;6.57;1.27;;;;;;;;;;5025080;28;20124;-78
2021/04/13 19:00:26;;;;;;;2.25;0.90;;;;;;;;;;5047726;28;20037;-78
2021/04/13 19:02:56;;;;;;;3.00;0.90;;;;;;;;;;5044777;28;20029;-78
2021/04/13 19:05:25;;;;;;;3.17;1.40;;;;;;;;;;5038409;28;20013;-77
2021/04/13 19:08:04;;;;;;;3.17;1.10;;;;;;;;;;5043733;28;20034;-77
2021/04/13 19:10:53;;;;;;;2.50;1.33;;;;;;;;;;5048036;28;20028;-78
2021/04/13 19:13:22;;;;;;;2.67;1.50;;;;;;;;;;5035911;28;20029;-78
2021/04/13 19:15:50;;;;;;;4.20;1.65;;;;;;;;;;5051258;28;20739;-77
2021/04/13 19:18:31;;;;;;;4.72;1.13;;;;;;;;;;5045857;28;20038;-77
2021/04/13 19:21:01;;;;;;;2.88;1.25;;;;;;;;;;5042358;28;20052;-79
2021/04/13 19:23:31;;;;;;;2.50;0.90;;;;;;;;;;5040385;28;20021;-77
2021/04/13 19:26:06;;;;;;;4.23;1.27;;;;;;;;;;5043248;28;20043;-78
2021/04/13 19:28:32;;;;;;;2.60;1.05;;;;;;;;;;5044312;28;20113;-78
2021/04/13 19:31:01;;;;;;;2.80;1.05;;;;;;;;;;5044957;28;20086;-77
2021/04/13 19:33:31;;;;;;;2.47;1.10;;;;;;;;;;5049284;28;20478;-78
2021/04/13 19:36:00;;;;;;;7.80;1.70;;;;;;;;;;5050524;28;20615;-78
2021/04/13 19:38:28;;;;;;;2.67;1.20;;;;;;;;;;5047275;28;20020;-78
2021/04/13 19:40:56;;;;;;;4.78;0.95;;;;;;;;;;5032377;28;20021;-78
2021/04/13 19:43:24;;;;;;;1.88;0.90;;;;;;;;;;5049108;28;20032;-77
2021/04/13 19:46:01;;;;;;;6.70;1.85;;;;;;;;;;5047944;28;20599;-78
2021/04/13 19:48:31;;;;;;;3.03;0.82;;;;;;;;;;5048077;28;20116;-77
2021/04/13 19:51:16;;;;;;;4.15;1.20;;;;;;;;;;5027792;28;20016;-78
2021/04/13 19:53:47;;;;;;;3.80;1.30;;;;;;;;;;5045793;28;20021;-77
2021/04/13 19:56:14;;;;;;;3.08;1.13;;;;;;;;;;5048699;28;20044;-77
2021/04/13 19:58:40;;;;;;;2.40;1.00;;;;;;;;;;5050587;28;20029;-78
2021/04/13 20:01:06;;;;;;;1.58;0.70;;;;;;;;;;5047189;28;20091;-78